• Join FlightAware (Why Join?)
  • Login
  • US Flag 
05:42PM EST


 

Airport Tracker/Info


-or-


 

Live Flight TrackerFlight Track Log ✈ OPT732 ✈ 04-May-2013 ✈ KTUL - KDTS

Flight Track Log - Related Links

Times and Time Zones

All times are in EDT time to prevent confusion due to time zone crossing. See the OPT732 flight status page for this flight to view local times or setup timezone preferences in your user account.

Time Position Orientation Groundspeed Altitude Reporting Facility
EDT Latitude Longitude Course Direction KTS MPH feet Rate Location/Type
03:28PM 36.1942 -95.8997 270° West 160 184 1,300  Level Kansas City Center
03:29PM 36.1944 -95.9539 270° West 216 249 3,300 2,880 Climbing Kansas City Center
03:30PM 36.1658 -96.0353 246° West 283 326 6,600 3,300 Climbing Kansas City Center
03:30PM 36.1000 -96.0747 206° Southwest 330 380 9,300 2,880 Climbing Kansas City Center
03:31PM 36.0881 -96.0775 191° South 309 356 9,900 3,060 Climbing Kansas City Center
03:32PM 35.9817 -96.0431 165° South 342 394 13,500 3,000 Climbing Kansas City Center
03:33PM 35.8983 -95.9706 145° Southeast 362 417 16,100 2,340 Climbing Kansas City Center
03:34PM 35.8094 -95.8919 144° Southeast 380 437 18,300 2,400 Climbing Kansas City Center
03:35PM 35.7097 -95.8033 144° Southeast 424 488 21,000 2,940 Climbing Kansas City Center
03:36PM 35.6078 -95.7128 144° Southeast 444 511 24,400 3,060 Climbing Kansas City Center
03:36PM 35.5611 -95.6733 145° Southeast 450 518 25,600 2,400 Climbing Fort Worth Center
03:37PM 35.4533 -95.5814 145° Southeast 462 532 28,000 2,160 Climbing Fort Worth Center
03:38PM 35.3475 -95.4692 139° Southeast 485 558 30,000 2,160 Climbing Fort Worth Center
03:39PM 35.2514 -95.3392 132° Southeast 503 579 32,400 1,740 Climbing Fort Worth Center
03:40PM 35.1906 -95.2606 133° Southeast 513 590 32,600 840 Climbing Memphis Center
03:41PM 35.0856 -95.1150 131° Southeast 525 604 33,700 1,260 Climbing Memphis Center
03:42PM 34.9764 -94.9719 133° Southeast 557 641 35,200 1,500 Climbing Memphis Center
03:43PM 34.8708 -94.8322 133° Southeast 567 652 36,800 1,680 Climbing Memphis Center
03:44PM 34.7792 -94.7108 133° Southeast 551 634 38,600 1,620 Climbing Memphis Center
03:45PM 34.6944 -94.5628 125° Southeast 545 627 40,100 1,500 Climbing Memphis Center
03:46PM 34.6244 -94.4103 119° Southeast 535 616 41,600 1,500 Climbing Memphis Center
03:47PM 34.5542 -94.2608 120° Southeast 519 597 43,100 1,320 Climbing Memphis Center
03:48PM 34.4856 -94.1164 120° Southeast 505 581 44,300 840 Climbing Memphis Center
03:49PM 34.4089 -93.9519 119° Southeast 499 574 44,800 300 Climbing Memphis Center
03:50PM 34.3400 -93.8083 120° Southeast 505 581 45,000 60 Climbing Memphis Center
03:51PM 34.2689 -93.6622 120° Southeast 505 581 45,000  Level Memphis Center
03:52PM 34.1956 -93.5061 120° Southeast 515 593 45,000  Level Memphis Center
03:53PM 34.1222 -93.3556 120° Southeast 521 600 45,000  Level Memphis Center
03:54PM 34.0467 -93.2000 120° Southeast 521 600 45,000  Level Memphis Center
03:55PM 33.9747 -93.0497 120° Southeast 521 600 45,000  Level Memphis Center
03:57PM 33.8236 -92.7408 120° Southeast 524 603 45,000  Level Fort Worth Center
03:58PM 33.7531 -92.5897 119° Southeast 524 603 45,000  Level Fort Worth Center
03:59PM 33.6936 -92.4744 122° Southeast 524 603 45,000  Level Memphis Center
04:00PM 33.6167 -92.3228 121° Southeast 518 596 45,000  Level Memphis Center
04:01PM 33.5397 -92.1717 121° Southeast 518 596 45,000  Level Memphis Center
04:02PM 33.4667 -92.0206 120° Southeast 518 596 45,000  Level Memphis Center
04:03PM 33.3956 -91.8750 120° Southeast 518 596 45,000  Level Memphis Center
04:04PM 33.3242 -91.7247 120° Southeast 518 596 45,000  Level Memphis Center
04:05PM 33.2400 -91.5917 127° Southeast 527 606 45,000  Level Memphis Center
04:06PM 33.1703 -91.4467 120° Southeast 527 606 45,000  Level Memphis Center
04:07PM 33.0942 -91.2994 122° Southeast 527 606 45,000  Level Memphis Center
04:08PM 33.0181 -91.1525 122° Southeast 527 606 45,000  Level Memphis Center
04:09PM 32.9436 -91.0083 122° Southeast 522 601 45,000  Level Memphis Center
04:10PM 32.8692 -90.8619 121° Southeast 517 595 45,000  Level Memphis Center
04:11PM 32.7947 -90.7181 122° Southeast 517 595 45,000  Level Memphis Center
04:12PM 32.7219 -90.5747 121° Southeast 517 595 45,000  Level Memphis Center
04:13PM 32.6447 -90.4289 122° Southeast 517 595 45,000  Level Memphis Center
04:14PM 32.5675 -90.2833 122° Southeast 517 595 45,000  Level Memphis Center
04:15PM 32.4922 -90.1381 122° Southeast 517 595 45,000 -360 Level Memphis Center
04:16PM 32.4167 -89.9733 118° Southeast 517 595 44,300 -780 Descending Memphis Center
04:17PM 32.3450 -89.8164 118° Southeast 528 608 43,500 -900 Descending Memphis Center
04:18PM 32.2711 -89.6594 119° Southeast 538 619 42,500 -1,200 Descending Memphis Center
04:19PM 32.1869 -89.5178 125° Southeast 538 619 41,100 -1,500 Descending Memphis Center
04:20PM 32.0939 -89.3889 130° Southeast 530 610 39,500 -1,560 Descending Memphis Center
04:21PM 31.9908 -89.2747 137° Southeast 511 588 38,000 -6,300 Descending Memphis Center
04:22PM 31.8853 -89.1561 136° Southeast 506 582 27,000 -2,880 Descending Memphis Center
04:23PM 31.7178 -88.9497 134° Southeast 544 626 30,000  Climbing Houston Center
04:24PM 31.5928 -88.7953 134° Southeast 540 621 27,000 -1,500 Descending Houston Center
04:25PM 31.4969 -88.6786 134° Southeast 499 574 27,000  Level Houston Center
04:27PM 31.3964 -88.5583 134° Southeast 517 595 27,000 -180 Level Houston Center
04:28PM 31.2933 -88.4328 134° Southeast 532 612 26,700 -660 Descending Houston Center
04:29PM 31.1792 -88.2969 134° Southeast 532 612 25,700 -960 Descending Houston Center
04:30PM 31.0783 -88.1753 134° Southeast 527 606 24,800 -840 Descending Houston Center
04:31PM 30.9808 -88.0572 134° Southeast 522 601 24,000 -420 Descending Houston Center
04:32PM 30.8833 -87.9417 134° Southeast 505 581 24,000  Level Houston Center
04:33PM 30.7950 -87.8250 131° Southeast 492 566 24,000  Level Houston Center
04:34PM 30.7686 -87.6714 101° East 500 575 24,000 -600 Level Houston Center
04:35PM 30.7808 -87.4792 86° East 500 575 22,800 -1,500 Descending Jacksonville Center
04:36PM 30.7883 -87.3272 87° East 485 558 20,900 -1,980 Descending Jacksonville Center
04:37PM 30.7978 -87.1803 86° East 467 537 18,900 -2,100 Descending Jacksonville Center
04:38PM 30.8067 -87.0356 86° East 452 520 16,800 -2,220 Descending Jacksonville Center
04:39PM 30.8150 -86.9053 86° East 427 491 14,500 -2,400 Descending Jacksonville Center
04:40PM 30.8250 -86.7847 84° East 396 456 12,000 -2,580 Descending Jacksonville Center
04:41PM 30.8197 -86.6781 93° East 355 409 9,400 -2,160 Descending Jacksonville Center
04:42PM 30.7653 -86.6156 135° Southeast 284 327 7,700 -1,740 Descending Jacksonville Center
04:43PM 30.6958 -86.5669 149° Southeast 266 306 6,000 -1,500 Descending Jacksonville Center
04:44PM 30.6283 -86.5136 146° Southeast 286 329 4,700 -1,380 Descending Jacksonville Center
04:45PM 30.5608 -86.4628 147° Southeast 291 335 3,300 -1,080 Descending Jacksonville Center
04:46PM 30.5039 -86.4172 145° Southeast 276 318 2,600 -360 Descending Jacksonville Center
04:47PM 30.4486 -86.3742 146° Southeast 258 297 2,600  Level Jacksonville Center
04:48PM 30.3933 -86.3314 146° Southeast 246 283 2,600  Level Jacksonville Center